Observation data for Slaton on 12/10/2018      Previous  Date       Current Mesonet Observations  Soil Data  Daily Summary Page  Observations in Plain Language
KSLS 100600Z 28009KT M05/M06 A3037 RMK A01 T10461058  RH  093%=      5-min Rain = 0
KSLS 100605Z 28010KT M04/M05 A3037 RMK A01 T10431054  RH  093%=      5-min Rain = 0
KSLS 100610Z 28010KT M04/M05 A3037 RMK A01 T10401052  RH  092%=      5-min Rain = 0
KSLS 100615Z 28010KT M04/M06 A3037 RMK A01 T10421055  RH  092%=      5-min Rain = 0
KSLS 100620Z 28010KT M04/M06 A3037 RMK A01 T10441057  RH  092%=      5-min Rain = 0
KSLS 100625Z 29010KT M04/M06 A3037 RMK A01 T10431055  RH  092%=      5-min Rain = 0
KSLS 100630Z 29009KT M04/M05 A3037 RMK A01 T10421053  RH  093%=      5-min Rain = 0
KSLS 100635Z 29009KT M04/M05 A3037 RMK A01 T10411054  RH  092%=      5-min Rain = 0
KSLS 100640Z 29009KT M04/M05 A3037 RMK A01 T10401052  RH  093%=      5-min Rain = 0
KSLS 100645Z 29009KT M04/M05 A3037 RMK A01 T10391051  RH  092%=      5-min Rain = 0
KSLS 100650Z 29010KT M04/M05 A3037 RMK A01 T10391051  RH  092%=      5-min Rain = 0
KSLS 100655Z 29010KT M04/M05 A3037 RMK A01 T10391052  RH  092%=      5-min Rain = 0
KSLS 100700Z 29009KT M04/M05 A3036 RMK A01 T10411053  RH  092%=      5-min Rain = 0
KSLS 100705Z 29009KT M04/M05 A3036 RMK A01 T10401052  RH  092%=      5-min Rain = 0
KSLS 100710Z 29009KT M04/M05 A3036 RMK A01 T10381051  RH  092%=      5-min Rain = 0
KSLS 100715Z 30008KT M04/M05 A3036 RMK A01 T10401053  RH  091%=      5-min Rain = 0
KSLS 100720Z 30009KT M04/M05 A3035 RMK A01 T10421054  RH  092%=      5-min Rain = 0
KSLS 100725Z 30008KT M04/M05 A3035 RMK A01 T10401053  RH  092%=      5-min Rain = 0
KSLS 100730Z 30007KT M04/M06 A3035 RMK A01 T10411055  RH  091%=      5-min Rain = 0
KSLS 100735Z 31006KT M05/M06 A3035 RMK A01 T10451059  RH  091%=      5-min Rain = 0
KSLS 100740Z 32004KT M05/M06 A3035 RMK A01 T10471059  RH  092%=      5-min Rain = 0
KSLS 100745Z 30006KT M05/M06 A3035 RMK A01 T10491061  RH  092%=      5-min Rain = 0
KSLS 100750Z 30007KT M05/M06 A3035 RMK A01 T10511063  RH  092%=      5-min Rain = 0
KSLS 100755Z 30006KT M05/M07 A3035 RMK A01 T10541065  RH  093%=      5-min Rain = 0
KSLS 100800Z 30007KT M06/M07 A3036 RMK A01 T10551066  RH  093%=      5-min Rain = 0
KSLS 100805Z 30006KT M06/M07 A3035 RMK A01 T10561067  RH  093%=      5-min Rain = 0
KSLS 100810Z 30006KT M06/M07 A3035 RMK A01 T10561068  RH  093%=      5-min Rain = 0
KSLS 100815Z 30006KT M06/M07 A3035 RMK A01 T10571069  RH  093%=      5-min Rain = 0
KSLS 100820Z 29007KT M06/M07 A3035 RMK A01 T10581070  RH  092%=      5-min Rain = 0
KSLS 100825Z 29008KT M06/M07 A3035 RMK A01 T10601073  RH  092%=      5-min Rain = 0
KSLS 100830Z 28008KT M06/M07 A3035 RMK A01 T10611072  RH  093%=      5-min Rain = 0
KSLS 100835Z 28009KT M06/M07 A3035 RMK A01 T10591069  RH  094%=      5-min Rain = 0
KSLS 100840Z 28008KT M06/M07 A3035 RMK A01 T10571067  RH  093%=      5-min Rain = 0
KSLS 100845Z 27008KT M06/M07 A3034 RMK A01 T10611073  RH  092%=      5-min Rain = 0
KSLS 100850Z 27009KT M06/M07 A3034 RMK A01 T10631073  RH  093%=      5-min Rain = 0
KSLS 100855Z 27009KT M06/M06 A3034 RMK A01 T10551064  RH  094%=      5-min Rain = 0
KSLS 100900Z 27008KT M05/M06 A3034 RMK A01 T10521063  RH  093%=      5-min Rain = 0
KSLS 100905Z 27008KT M05/M06 A3034 RMK A01 T10491060  RH  093%=      5-min Rain = 0
KSLS 100910Z 27008KT M05/M06 A3034 RMK A01 T10471058  RH  093%=      5-min Rain = 0
KSLS 100915Z 27008KT M04/M06 A3034 RMK A01 T10441056  RH  092%=      5-min Rain = 0
KSLS 100920Z 27008KT M05/M06 A3034 RMK A01 T10451058  RH  092%=      5-min Rain = 0
KSLS 100925Z 27008KT M05/M06 A3034 RMK A01 T10481061  RH  092%=      5-min Rain = 0
KSLS 100930Z 28008KT M05/M06 A3034 RMK A01 T10501062  RH  092%=      5-min Rain = 0
KSLS 100935Z 28008KT M05/M06 A3034 RMK A01 T10511063  RH  093%=      5-min Rain = 0
KSLS 100940Z 28009KT M05/M07 A3034 RMK A01 T10541066  RH  092%=      5-min Rain = 0
KSLS 100945Z 28008KT M06/M07 A3034 RMK A01 T10571068  RH  093%=      5-min Rain = 0
KSLS 100950Z 28008KT M06/M07 A3034 RMK A01 T10561065  RH  094%=      5-min Rain = 0
KSLS 100955Z 29007KT M05/M06 A3033 RMK A01 T10541062  RH  095%=      5-min Rain = 0
KSLS 101000Z 28007KT M05/M06 A3033 RMK A01 T10521060  RH  095%=      5-min Rain = 0
KSLS 101005Z 28007KT M05/M06 A3033 RMK A01 T10541063  RH  094%=      5-min Rain = 0
KSLS 101010Z 29007KT M05/M06 A3033 RMK A01 T10541064  RH  094%=      5-min Rain = 0
KSLS 101015Z 29007KT M05/M06 A3033 RMK A01 T10511059  RH  095%=      5-min Rain = 0
KSLS 101020Z 30006KT M05/M06 A3033 RMK A01 T10501060  RH  094%=      5-min Rain = 0
KSLS 101025Z 31006KT M05/M07 A3033 RMK A01 T10541065  RH  093%=      5-min Rain = 0
KSLS 101030Z 31007KT M05/M06 A3033 RMK A01 T10531062  RH  094%=      5-min Rain = 0
KSLS 101035Z 31007KT M05/M06 A3033 RMK A01 T10481058  RH  094%=      5-min Rain = 0
KSLS 101040Z 30007KT M05/M06 A3033 RMK A01 T10481061  RH  092%=      5-min Rain = 0
KSLS 101045Z 30008KT M05/M06 A3033 RMK A01 T10481062  RH  091%=      5-min Rain = 0
KSLS 101050Z 30009KT M05/M06 A3033 RMK A01 T10471061  RH  091%=      5-min Rain = 0
KSLS 101055Z 30010KT M05/M06 A3033 RMK A01 T10471061  RH  091%=      5-min Rain = 0
KSLS 101100Z 30010KT M05/M06 A3033 RMK A01 T10471061  RH  091%=      5-min Rain = 0
KSLS 101105Z 30010KT M05/M06 A3033 RMK A01 T10471061  RH  091%=      5-min Rain = 0
KSLS 101110Z 31010KT M05/M06 A3033 RMK A01 T10451059  RH  091%=      5-min Rain = 0
KSLS 101115Z 30010KT M04/M06 A3033 RMK A01 T10441059  RH  090%=      5-min Rain = 0
KSLS 101120Z 30010KT M05/M06 A3033 RMK A01 T10451060  RH  090%=      5-min Rain = 0
KSLS 101125Z 30009KT M05/M06 A3033 RMK A01 T10471062  RH  090%=      5-min Rain = 0
KSLS 101130Z 30010KT M05/M06 A3033 RMK A01 T10451059  RH  091%=      5-min Rain = 0
KSLS 101135Z 30010KT M05/M06 A3033 RMK A01 T10461061  RH  090%=      5-min Rain = 0
KSLS 101140Z 29011KT M05/M06 A3033 RMK A01 T10471061  RH  091%=      5-min Rain = 0
KSLS 101145Z 30011KT M05/M06 A3033 RMK A01 T10481062  RH  091%=      5-min Rain = 0
KSLS 101150Z 31011KT M05/M06 A3033 RMK A01 T10451059  RH  091%=      5-min Rain = 0
KSLS 101155Z 31010KT M05/M06 A3034 RMK A01 T10451060  RH  091%=      5-min Rain = 0
KSLS 101200Z 30011KT M05/M06 A3033 RMK A01 T10461061  RH  090%=      5-min Rain = 0
KSLS 101205Z 31011KT M05/M06 A3034 RMK A01 T10471062  RH  090%=      5-min Rain = 0
KSLS 101210Z 30011KT M05/M06 A3034 RMK A01 T10481063  RH  090%=      5-min Rain = 0
KSLS 101215Z 30011KT M05/M07 A3034 RMK A01 T10501065  RH  091%=      5-min Rain = 0
KSLS 101220Z 30011KT M05/M07 A3034 RMK A01 T10511065  RH  091%=      5-min Rain = 0
KSLS 101225Z 29011KT M05/M06 A3034 RMK A01 T10501063  RH  091%=      5-min Rain = 0
KSLS 101230Z 29010KT M05/M06 A3034 RMK A01 T10491063  RH  091%=      5-min Rain = 0
KSLS 101235Z 28009KT M05/M06 A3034 RMK A01 T10491062  RH  091%=      5-min Rain = 0
KSLS 101240Z 27007KT M05/M06 A3034 RMK A01 T10511064  RH  091%=      5-min Rain = 0
KSLS 101245Z 28007KT M05/M06 A3034 RMK A01 T10521063  RH  093%=      5-min Rain = 0
KSLS 101250Z 28008KT M05/M06 A3034 RMK A01 T10531062  RH  094%=      5-min Rain = 0
KSLS 101255Z 27006KT M05/M06 A3035 RMK A01 T10531064  RH  093%=      5-min Rain = 0
KSLS 101300Z 27007KT M06/M07 A3035 RMK A01 T10561067  RH  093%=      5-min Rain = 0
KSLS 101305Z 27007KT M06/M07 A3035 RMK A01 T10561067  RH  094%=      5-min Rain = 0
KSLS 101310Z 27009KT M06/M07 A3035 RMK A01 T10551065  RH  094%=      5-min Rain = 0
KSLS 101315Z 27009KT M05/M06 A3035 RMK A01 T10511060  RH  094%=      5-min Rain = 0
KSLS 101320Z 27009KT M05/M06 A3035 RMK A01 T10491060  RH  093%=      5-min Rain = 0
KSLS 101325Z 27009KT M05/M06 A3035 RMK A01 T10481059  RH  093%=      5-min Rain = 0
KSLS 101330Z 28009KT M05/M06 A3035 RMK A01 T10491060  RH  093%=      5-min Rain = 0
KSLS 101335Z 27009KT M05/M06 A3035 RMK A01 T10501061  RH  093%=      5-min Rain = 0
KSLS 101340Z 28009KT M05/M06 A3035 RMK A01 T10501061  RH  093%=      5-min Rain = 0
KSLS 101345Z 28008KT M05/M06 A3035 RMK A01 T10511061  RH  093%=      5-min Rain = 0
KSLS 101350Z 28008KT M05/M06 A3035 RMK A01 T10501060  RH  093%=      5-min Rain = 0
KSLS 101355Z 28008KT M05/M06 A3035 RMK A01 T10481059  RH  093%=      5-min Rain = 0
KSLS 101400Z 28007KT M05/M06 A3035 RMK A01 T10461059  RH  092%=      5-min Rain = 0
KSLS 101405Z 29008KT M05/M06 A3035 RMK A01 T10451058  RH  092%=      5-min Rain = 0
KSLS 101410Z 28008KT M04/M06 A3035 RMK A01 T10431057  RH  091%=      5-min Rain = 0
KSLS 101415Z 28009KT M04/M06 A3035 RMK A01 T10411056  RH  091%=      5-min Rain = 0
KSLS 101420Z 28009KT M04/M06 A3035 RMK A01 T10401055  RH  090%=      5-min Rain = 0
KSLS 101425Z 28008KT M04/M05 A3035 RMK A01 T10391054  RH  090%=      5-min Rain = 0
KSLS 101430Z 28008KT M04/M05 A3035 RMK A01 T10361052  RH  090%=      5-min Rain = 0
KSLS 101435Z 28008KT M03/M05 A3035 RMK A01 T10331050  RH  089%=      5-min Rain = 0
KSLS 101440Z 29008KT M03/M05 A3035 RMK A01 T10311048  RH  089%=      5-min Rain = 0
KSLS 101445Z 30008KT M03/M05 A3036 RMK A01 T10301047  RH  089%=      5-min Rain = 0
KSLS 101450Z 30010KT M03/M05 A3036 RMK A01 T10281046  RH  089%=      5-min Rain = 0
KSLS 101455Z 31006KT M03/M05 A3036 RMK A01 T10271045  RH  089%=      5-min Rain = 0
KSLS 101500Z 31004KT M02/M04 A3037 RMK A01 T10221042  RH  088%=      5-min Rain = 0
KSLS 101505Z 30006KT M02/M05 A3037 RMK A01 T10241045  RH  087%=      5-min Rain = 0
KSLS 101510Z 29007KT M02/M04 A3037 RMK A01 T10241044  RH  087%=      5-min Rain = 0
KSLS 101515Z 30006KT M03/M05 A3038 RMK A01 T10251045  RH  087%=      5-min Rain = 0
KSLS 101520Z 30005KT M02/M04 A3038 RMK A01 T10241044  RH  087%=      5-min Rain = 0
KSLS 101525Z 29005KT M02/M04 A3038 RMK A01 T10211042  RH  087%=      5-min Rain = 0
KSLS 101530Z 30006KT M02/M04 A3038 RMK A01 T10211043  RH  086%=      5-min Rain = 0
KSLS 101535Z 30007KT M02/M04 A3038 RMK A01 T10191040  RH  087%=      5-min Rain = 0
KSLS 101540Z 30008KT M02/M04 A3038 RMK A01 T10161038  RH  086%=      5-min Rain = 0
KSLS 101545Z 29007KT M01/M04 A3038 RMK A01 T10131037  RH  085%=      5-min Rain = 0
KSLS 101550Z 30007KT M01/M04 A3038 RMK A01 T10121036  RH  085%=      5-min Rain = 0
KSLS 101555Z 30005KT M01/M03 A3038 RMK A01 T10101034  RH  085%=      5-min Rain = 0
KSLS 101600Z 30005KT M01/M03 A3038 RMK A01 T10071033  RH  084%=      5-min Rain = 0
KSLS 101605Z 31004KT M00/M03 A3038 RMK A01 T10031030  RH  083%=      5-min Rain = 0
KSLS 101610Z 31005KT 00/M03 A3038 RMK A01 T00011029  RH  081%=      5-min Rain = 0
KSLS 101615Z 31006KT 00/M03 A3038 RMK A01 T00031028  RH  081%=      5-min Rain = 0
KSLS 101620Z 31005KT 01/M03 A3038 RMK A01 T00061025  RH  080%=      5-min Rain = 0
KSLS 101625Z 31005KT 01/M03 A3038 RMK A01 T00081025  RH  079%=      5-min Rain = 0
KSLS 101630Z 31004KT 01/M02 A3038 RMK A01 T00091023  RH  080%=      5-min Rain = 0
KSLS 101635Z 31005KT 01/M02 A3038 RMK A01 T00121022  RH  079%=      5-min Rain = 0
KSLS 101640Z 31004KT 01/M02 A3038 RMK A01 T00141020  RH  079%=      5-min Rain = 0
KSLS 101645Z 30006KT 01/M02 A3037 RMK A01 T00141020  RH  079%=      5-min Rain = 0
KSLS 101650Z 31007KT 02/M02 A3037 RMK A01 T00181017  RH  078%=      5-min Rain = 0
KSLS 101655Z 31005KT 02/M02 A3037 RMK A01 T00221016  RH  077%=      5-min Rain = 0
KSLS 101700Z 31004KT 02/M01 A3037 RMK A01 T00241014  RH  076%=      5-min Rain = 0
KSLS 101705Z 30005KT 02/M01 A3037 RMK A01 T00231013  RH  077%=      5-min Rain = 0
KSLS 101710Z 29005KT 03/M01 A3037 RMK A01 T00251010  RH  078%=      5-min Rain = 0
KSLS 101715Z 30005KT 03/M01 A3037 RMK A01 T00261010  RH  078%=      5-min Rain = 0
KSLS 101720Z 29005KT 03/M01 A3036 RMK A01 T00271010  RH  078%=      5-min Rain = 0
KSLS 101725Z 29005KT 03/M01 A3036 RMK A01 T00281010  RH  077%=      5-min Rain = 0
KSLS 101730Z 29005KT 03/M01 A3036 RMK A01 T00301009  RH  076%=      5-min Rain = 0
KSLS 101735Z 28004KT 03/M01 A3036 RMK A01 T00311009  RH  076%=      5-min Rain = 0
KSLS 101740Z 28005KT 03/M01 A3035 RMK A01 T00321009  RH  075%=      5-min Rain = 0
KSLS 101745Z 28005KT 03/M01 A3035 RMK A01 T00331008  RH  075%=      5-min Rain = 0
KSLS 101750Z 28005KT 04/M01 A3035 RMK A01 T00351007  RH  075%=      5-min Rain = 0
KSLS 101755Z 27004KT 04/M00 A3035 RMK A01 T00371004  RH  075%=      5-min Rain = 0
KSLS 101800Z 27005KT 04/M01 A3035 RMK A01 T00371006  RH  074%=      5-min Rain = 0
KSLS 101805Z 26006KT 04/M01 A3035 RMK A01 T00351008  RH  075%=      5-min Rain = 0
KSLS 101810Z 27006KT 04/M01 A3034 RMK A01 T00371006  RH  074%=      5-min Rain = 0
KSLS 101815Z 27005KT 04/M00 A3034 RMK A01 T00391003  RH  075%=      5-min Rain = 0
KSLS 101820Z 26004KT 04/M00 A3034 RMK A01 T00441001  RH  073%=      5-min Rain = 0
KSLS 101825Z 26005KT 05/M00 A3034 RMK A01 T00461003  RH  071%=      5-min Rain = 0
KSLS 101830Z 26006KT 05/M00 A3034 RMK A01 T00451004  RH  071%=      5-min Rain = 0
KSLS 101835Z 27005KT 05/M00 A3034 RMK A01 T00461003  RH  071%=      5-min Rain = 0
KSLS 101840Z 27004KT 05/M00 A3034 RMK A01 T00501002  RH  070%=      5-min Rain = 0
KSLS 101845Z 27004KT 05/M00 A3034 RMK A01 T00541002  RH  068%=      5-min Rain = 0
KSLS 101850Z 26003KT 06/M00 A3033 RMK A01 T00551002  RH  067%=      5-min Rain = 0
KSLS 101855Z 26004KT 06/M00 A3033 RMK A01 T00571001  RH  067%=      5-min Rain = 0
KSLS 101900Z 26005KT 06/M00 A3033 RMK A01 T00561002  RH  067%=      5-min Rain = 0
KSLS 101905Z 26004KT 06/00 A3032 RMK A01 T005600-0  RH  068%=      5-min Rain = 0
KSLS 101910Z 26004KT 06/00 A3032 RMK A01 T00570001  RH  068%=      5-min Rain = 0
KSLS 101915Z 26005KT 06/00 A3032 RMK A01 T00550000  RH  068%=      5-min Rain = 0
KSLS 101920Z 25005KT 06/00 A3032 RMK A01 T00570001  RH  068%=      5-min Rain = 0
KSLS 101925Z 24004KT 06/00 A3031 RMK A01 T00590003  RH  068%=      5-min Rain = 0
KSLS 101930Z 25004KT 06/00 A3031 RMK A01 T00590004  RH  068%=      5-min Rain = 0
KSLS 101935Z 25003KT 06/00 A3031 RMK A01 T00630003  RH  066%=      5-min Rain = 0
KSLS 101940Z 25003KT 07/00 A3031 RMK A01 T00650004  RH  066%=      5-min Rain = 0
KSLS 101945Z 26002KT 07/01 A3031 RMK A01 T00700007  RH  065%=      5-min Rain = 0
KSLS 101950Z 24002KT 08/01 A3031 RMK A01 T00810010  RH  061%=      5-min Rain = 0
KSLS 101955Z 25001KT 08/01 A303 RMK A01 T00810008  RH  061%=      5-min Rain = 0
KSLS 102000Z 26002KT 08/01 A303 RMK A01 T00790005  RH  061%=      5-min Rain = 0
KSLS 102005Z 26002KT 08/01 A303 RMK A01 T00760005  RH  062%=      5-min Rain = 0
KSLS 102010Z 27002KT 08/01 A303 RMK A01 T00770009  RH  063%=      5-min Rain = 0
KSLS 102015Z 26003KT 07/00 A3029 RMK A01 T00730003  RH  062%=      5-min Rain = 0
KSLS 102020Z 26004KT 07/00 A3029 RMK A01 T00680001  RH  063%=      5-min Rain = 0
KSLS 102025Z 26004KT 07/00 A3029 RMK A01 T00690003  RH  063%=      5-min Rain = 0
KSLS 102030Z 27003KT 07/01 A3029 RMK A01 T00720008  RH  065%=      5-min Rain = 0
KSLS 102035Z 26003KT 07/01 A3029 RMK A01 T00740010  RH  064%=      5-min Rain = 0
KSLS 102040Z 26003KT 08/01 A3029 RMK A01 T00760010  RH  064%=      5-min Rain = 0
KSLS 102045Z 26003KT 08/01 A3029 RMK A01 T00770011  RH  064%=      5-min Rain = 0
KSLS 102050Z 27003KT 08/01 A3029 RMK A01 T00800012  RH  063%=      5-min Rain = 0
KSLS 102055Z 27003KT 08/01 A3028 RMK A01 T00810013  RH  063%=      5-min Rain = 0
KSLS 102100Z 27003KT 08/01 A3028 RMK A01 T00800011  RH  063%=      5-min Rain = 0
KSLS 102105Z 29002KT 09/02 A3028 RMK A01 T00850015  RH  062%=      5-min Rain = 0
KSLS 102110Z 29001KT 09/02 A3028 RMK A01 T00920017  RH  060%=      5-min Rain = 0
KSLS 102115Z 30002KT 09/01 A3028 RMK A01 T00900010  RH  058%=      5-min Rain = 0
KSLS 102120Z 30002KT 09/01 A3028 RMK A01 T00870007  RH  058%=      5-min Rain = 0
KSLS 102125Z 29002KT 09/01 A3028 RMK A01 T00890010  RH  058%=      5-min Rain = 0
KSLS 102130Z 30001KT 09/01 A3028 RMK A01 T00930010  RH  057%=      5-min Rain = 0
KSLS 102135Z 30001KT 10/01 A3028 RMK A01 T00980010  RH  055%=      5-min Rain = 0
KSLS 102140Z 01002KT 10/01 A3028 RMK A01 T00950009  RH  056%=      5-min Rain = 0
KSLS 102145Z 02002KT 09/01 A3028 RMK A01 T00860011  RH  060%=      5-min Rain = 0
KSLS 102150Z 02002KT 09/01 A3028 RMK A01 T00850010  RH  060%=      5-min Rain = 0
KSLS 102155Z 02001KT 09/01 A3028 RMK A01 T00860011  RH  060%=      5-min Rain = 0
KSLS 102200Z 02001KT 09/01 A3027 RMK A01 T00890011  RH  059%=      5-min Rain = 0
KSLS 102205Z 02002KT 09/01 A3027 RMK A01 T00850009  RH  060%=      5-min Rain = 0
KSLS 102210Z 02002KT 08/01 A3028 RMK A01 T00820009  RH  061%=      5-min Rain = 0
KSLS 102215Z 05002KT 08/01 A3028 RMK A01 T00810009  RH  061%=      5-min Rain = 0
KSLS 102220Z 04002KT 08/01 A3028 RMK A01 T00780010  RH  063%=      5-min Rain = 0
KSLS 102225Z 03003KT 08/01 A3028 RMK A01 T00750010  RH  064%=      5-min Rain = 0
KSLS 102230Z 03002KT 07/01 A3028 RMK A01 T00730008  RH  064%=      5-min Rain = 0
KSLS 102235Z 03002KT 07/01 A3028 RMK A01 T00740008  RH  064%=      5-min Rain = 0
KSLS 102240Z 03002KT 08/01 A3028 RMK A01 T00750008  RH  063%=      5-min Rain = 0
KSLS 102245Z 02002KT 07/01 A3028 RMK A01 T00740008  RH  064%=      5-min Rain = 0
KSLS 102250Z 02002KT 07/01 A3028 RMK A01 T00720008  RH  064%=      5-min Rain = 0
KSLS 102255Z 03002KT 07/01 A3028 RMK A01 T00700008  RH  065%=      5-min Rain = 0
KSLS 102300Z 03001KT 07/01 A3028 RMK A01 T00720007  RH  064%=      5-min Rain = 0
KSLS 102305Z 03001KT 07/01 A3028 RMK A01 T00740008  RH  064%=      5-min Rain = 0
KSLS 102310Z 03001KT 07/01 A3029 RMK A01 T00720008  RH  065%=      5-min Rain = 0
KSLS 102315Z 03001KT 07/01 A3029 RMK A01 T00700008  RH  065%=      5-min Rain = 0
KSLS 102320Z 03001KT 07/01 A3028 RMK A01 T00660008  RH  067%=      5-min Rain = 0
KSLS 102325Z 03001KT 06/01 A3028 RMK A01 T00640007  RH  068%=      5-min Rain = 0
KSLS 102330Z 03002KT 06/01 A3028 RMK A01 T00620007  RH  068%=      5-min Rain = 0
KSLS 102335Z 03002KT 06/01 A3028 RMK A01 T00600007  RH  069%=      5-min Rain = 0
KSLS 102340Z 03002KT 06/01 A3028 RMK A01 T00580006  RH  070%=      5-min Rain = 0
KSLS 102345Z 03002KT 06/01 A3028 RMK A01 T00560005  RH  071%=      5-min Rain = 0
KSLS 102350Z 04002KT 05/01 A3028 RMK A01 T00540005  RH  071%=      5-min Rain = 0
KSLS 102355Z 05002KT 05/01 A3028 RMK A01 T00530005  RH  072%=      5-min Rain = 0
KSLS 110000Z 05002KT 05/01 A3028 RMK A01 T00530005  RH  072%=      5-min Rain = 0
KSLS 110005Z 05001KT 05/01 A3028 RMK A01 T00520005  RH  072%=      5-min Rain = 0
KSLS 110010Z 07001KT 05/00 A3028 RMK A01 T00510004  RH  072%=      5-min Rain = 0
KSLS 110015Z 10002KT 05/00 A3029 RMK A01 T00490004  RH  073%=      5-min Rain = 0
KSLS 110020Z 10001KT 05/00 A3029 RMK A01 T00480004  RH  074%=      5-min Rain = 0
KSLS 110025Z 10001KT 05/00 A3029 RMK A01 T00480003  RH  073%=      5-min Rain = 0
KSLS 110030Z 09002KT 05/00 A3028 RMK A01 T00490003  RH  073%=      5-min Rain = 0
KSLS 110035Z 09002KT 05/00 A3028 RMK A01 T00490003  RH  073%=      5-min Rain = 0
KSLS 110040Z 09002KT 05/00 A3028 RMK A01 T00460002  RH  074%=      5-min Rain = 0
KSLS 110045Z 09002KT 05/01 A3028 RMK A01 T00450006  RH  077%=      5-min Rain = 0
KSLS 110050Z 09002KT 05/01 A3028 RMK A01 T00450007  RH  078%=      5-min Rain = 0
KSLS 110055Z 09003KT 04/01 A3028 RMK A01 T00440008  RH  079%=      5-min Rain = 0
KSLS 110100Z 10004KT 04/01 A3028 RMK A01 T00420007  RH  079%=      5-min Rain = 0
KSLS 110105Z 11004KT 04/01 A3028 RMK A01 T00410007  RH  080%=      5-min Rain = 0
KSLS 110110Z 11005KT 04/01 A3028 RMK A01 T00410007  RH  080%=      5-min Rain = 0
KSLS 110115Z 13005KT 04/01 A3029 RMK A01 T00420008  RH  079%=      5-min Rain = 0
KSLS 110120Z 13005KT 04/01 A3029 RMK A01 T00420008  RH  079%=      5-min Rain = 0
KSLS 110125Z 13005KT 04/01 A3029 RMK A01 T00420008  RH  079%=      5-min Rain = 0
KSLS 110130Z 14006KT 04/01 A3029 RMK A01 T00430006  RH  078%=      5-min Rain = 0
KSLS 110135Z 14007KT 04/00 A3029 RMK A01 T00420004  RH  077%=      5-min Rain = 0
KSLS 110140Z 13007KT 03/M00 A3029 RMK A01 T00331004  RH  078%=      5-min Rain = 0
KSLS 110145Z 12006KT 03/00 A3029 RMK A01 T00340001  RH  080%=      5-min Rain = 0
KSLS 110150Z 12007KT 04/00 A3029 RMK A01 T00350000  RH  079%=      5-min Rain = 0
KSLS 110155Z 12009KT 04/00 A3029 RMK A01 T00380003  RH  079%=      5-min Rain = 0
KSLS 110200Z 12009KT 04/00 A3029 RMK A01 T00440004  RH  076%=      5-min Rain = 0
KSLS 110205Z 12007KT 04/00 A3029 RMK A01 T00380000  RH  077%=      5-min Rain = 0
KSLS 110210Z 12008KT 03/M00 A3029 RMK A01 T00331001  RH  079%=      5-min Rain = 0
KSLS 110215Z 13007KT 03/M00 A3029 RMK A01 T00281002  RH  081%=      5-min Rain = 0
KSLS 110220Z 12007KT 03/M00 A3029 RMK A01 T00271001  RH  083%=      5-min Rain = 0
KSLS 110225Z 12007KT 03/M00 A3029 RMK A01 T00261001  RH  083%=      5-min Rain = 0
KSLS 110230Z 12007KT 02/M00 A3029 RMK A01 T00241003  RH  083%=      5-min Rain = 0
KSLS 110235Z 12007KT 02/M00 A3029 RMK A01 T00221003  RH  084%=      5-min Rain = 0
KSLS 110240Z 12007KT 02/M01 A3029 RMK A01 T00201005  RH  084%=      5-min Rain = 0
KSLS 110245Z 12007KT 02/M01 A3029 RMK A01 T00161007  RH  086%=      5-min Rain = 0
KSLS 110250Z 13007KT 01/M01 A3029 RMK A01 T00141007  RH  087%=      5-min Rain = 0
KSLS 110255Z 13007KT 01/M01 A3029 RMK A01 T00131007  RH  088%=      5-min Rain = 0
KSLS 110300Z 13006KT 01/M01 A3029 RMK A01 T00121008  RH  088%=      5-min Rain = 0
KSLS 110305Z 14006KT 01/M01 A3029 RMK A01 T00121007  RH  088%=      5-min Rain = 0
KSLS 110310Z 14006KT 01/M01 A3029 RMK A01 T00141006  RH  087%=      5-min Rain = 0
KSLS 110315Z 15007KT 02/M01 A3029 RMK A01 T00151005  RH  087%=      5-min Rain = 0
KSLS 110320Z 15007KT 01/M01 A3029 RMK A01 T00141007  RH  087%=      5-min Rain = 0
KSLS 110325Z 15007KT 01/M01 A3029 RMK A01 T00111008  RH  088%=      5-min Rain = 0
KSLS 110330Z 16007KT 01/M01 A3029 RMK A01 T00121008  RH  087%=      5-min Rain = 0
KSLS 110335Z 17006KT 01/M01 A3029 RMK A01 T00101010  RH  087%=      5-min Rain = 0
KSLS 110340Z 17007KT 01/M01 A3029 RMK A01 T00071009  RH  090%=      5-min Rain = 0
KSLS 110345Z 17008KT 01/M01 A3029 RMK A01 T00061010  RH  090%=      5-min Rain = 0
KSLS 110350Z 17008KT 01/M01 A3029 RMK A01 T00061010  RH  090%=      5-min Rain = 0
KSLS 110355Z 17008KT 01/M01 A3029 RMK A01 T00071010  RH  089%=      5-min Rain = 0
KSLS 110400Z 17007KT 01/M01 A3029 RMK A01 T00051012  RH  089%=      5-min Rain = 0
KSLS 110405Z 18008KT 00/M01 A3029 RMK A01 T00031013  RH  090%=      5-min Rain = 0
KSLS 110410Z 19008KT 00/M01 A3029 RMK A01 T00041010  RH  091%=      5-min Rain = 0
KSLS 110415Z 19008KT 01/M01 A3028 RMK A01 T00051011  RH  090%=      5-min Rain = 0
KSLS 110420Z 20009KT 01/M01 A3028 RMK A01 T00061009  RH  091%=      5-min Rain = 0
KSLS 110425Z 20008KT 01/M00 A3028 RMK A01 T00131003  RH  090%=      5-min Rain = 0
KSLS 110430Z 20009KT 02/M00 A3028 RMK A01 T00171001  RH  089%=      5-min Rain = 0
KSLS 110435Z 20010KT 02/00 A3029 RMK A01 T00220004  RH  089%=      5-min Rain = 0
KSLS 110440Z 20010KT 02/01 A3029 RMK A01 T00240005  RH  089%=      5-min Rain = 0
KSLS 110445Z 20009KT 03/01 A3029 RMK A01 T00250007  RH  089%=      5-min Rain = 0
KSLS 110450Z 20009KT 02/01 A3029 RMK A01 T00230007  RH  090%=      5-min Rain = 0
KSLS 110455Z 21009KT 02/01 A3029 RMK A01 T00210006  RH  091%=      5-min Rain = 0
KSLS 110500Z 21009KT 02/01 A3029 RMK A01 T00220007  RH  091%=      5-min Rain = 0
KSLS 110505Z 21010KT 02/01 A3029 RMK A01 T00210008  RH  092%=      5-min Rain = 0
KSLS 110510Z 21010KT 02/01 A3029 RMK A01 T00220008  RH  092%=      5-min Rain = 0
KSLS 110515Z 21010KT 02/01 A3029 RMK A01 T00230009  RH  091%=      5-min Rain = 0
KSLS 110520Z 21010KT 02/01 A3029 RMK A01 T00230008  RH  091%=      5-min Rain = 0
KSLS 110525Z 21010KT 02/01 A3029 RMK A01 T00220008  RH  091%=      5-min Rain = 0
KSLS 110530Z 21010KT 02/01 A3029 RMK A01 T00230009  RH  091%=      5-min Rain = 0
KSLS 110535Z 21010KT 02/01 A3029 RMK A01 T00220008  RH  092%=      5-min Rain = 0
KSLS 110540Z 21010KT 02/01 A3029 RMK A01 T00220008  RH  092%=      5-min Rain = 0
KSLS 110545Z 21010KT 02/01 A3029 RMK A01 T00200007  RH  092%=      5-min Rain = 0
KSLS 110550Z 21010KT 02/01 A3029 RMK A01 T00190007  RH  093%=      5-min Rain = 0
KSLS 110555Z 21009KT 02/01 A3029 RMK A01 T00200007  RH  092%=      5-min Rain = 0

Page generated in 0.0095 seconds.